sensor_id;sensor_type;location;lat;lon;timestamp;P1;durP1;ratioP1;P2;durP2;ratioP2
78122;SDS011;67376;44.802;10.332;2023-03-16T00:02:03;3.83;;;2.80;;
78122;SDS011;67376;44.802;10.332;2023-03-16T00:04:29;4.75;;;2.90;;
78122;SDS011;67376;44.802;10.332;2023-03-16T00:06:56;3.67;;;2.60;;
78122;SDS011;67376;44.802;10.332;2023-03-16T00:09:22;5.60;;;2.97;;
78122;SDS011;67376;44.802;10.332;2023-03-16T00:11:58;4.45;;;3.17;;
78122;SDS011;67376;44.802;10.332;2023-03-16T00:14:27;5.10;;;2.60;;
78122;SDS011;67376;44.802;10.332;2023-03-16T00:16:53;4.32;;;2.75;;
78122;SDS011;67376;44.802;10.332;2023-03-16T00:19:18;5.95;;;3.17;;
78122;SDS011;67376;44.802;10.332;2023-03-16T00:21:43;3.72;;;2.88;;
78122;SDS011;67376;44.802;10.332;2023-03-16T00:24:09;4.30;;;2.35;;
78122;SDS011;67376;44.802;10.332;2023-03-16T00:26:36;3.70;;;2.47;;
78122;SDS011;67376;44.802;10.332;2023-03-16T00:29:02;4.30;;;2.28;;
78122;SDS011;67376;44.802;10.332;2023-03-16T00:31:27;3.97;;;2.45;;
78122;SDS011;67376;44.802;10.332;2023-03-16T00:33:53;3.97;;;2.70;;
78122;SDS011;67376;44.802;10.332;2023-03-16T00:36:18;3.75;;;2.45;;
78122;SDS011;67376;44.802;10.332;2023-03-16T00:38:44;3.17;;;2.08;;
78122;SDS011;67376;44.802;10.332;2023-03-16T00:41:10;3.55;;;2.55;;
78122;SDS011;67376;44.802;10.332;2023-03-16T00:43:38;5.47;;;2.53;;
78122;SDS011;67376;44.802;10.332;2023-03-16T00:46:05;4.28;;;2.35;;
78122;SDS011;67376;44.802;10.332;2023-03-16T00:48:33;5.32;;;3.22;;
78122;SDS011;67376;44.802;10.332;2023-03-16T00:51:01;3.90;;;2.33;;
78122;SDS011;67376;44.802;10.332;2023-03-16T00:53:28;3.88;;;2.63;;
78122;SDS011;67376;44.802;10.332;2023-03-16T00:55:55;5.28;;;2.65;;
78122;SDS011;67376;44.802;10.332;2023-03-16T00:58:20;3.50;;;2.53;;
78122;SDS011;67376;44.802;10.332;2023-03-16T01:00:47;6.80;;;3.05;;
78122;SDS011;67376;44.802;10.332;2023-03-16T01:03:12;4.28;;;2.53;;
78122;SDS011;67376;44.802;10.332;2023-03-16T01:05:38;4.88;;;2.83;;
78122;SDS011;67376;44.802;10.332;2023-03-16T01:08:04;3.75;;;2.28;;
78122;SDS011;67376;44.802;10.332;2023-03-16T01:10:32;3.42;;;2.30;;
78122;SDS011;67376;44.802;10.332;2023-03-16T01:12:58;4.72;;;2.60;;
78122;SDS011;67376;44.802;10.332;2023-03-16T01:15:24;3.95;;;2.40;;
78122;SDS011;67376;44.802;10.332;2023-03-16T01:17:49;5.25;;;3.10;;
78122;SDS011;67376;44.802;10.332;2023-03-16T01:20:16;3.72;;;2.38;;
78122;SDS011;67376;44.802;10.332;2023-03-16T01:22:43;4.47;;;2.45;;
78122;SDS011;67376;44.802;10.332;2023-03-16T01:25:09;4.80;;;2.60;;
78122;SDS011;67376;44.802;10.332;2023-03-16T01:27:36;5.03;;;2.38;;
78122;SDS011;67376;44.802;10.332;2023-03-16T01:30:02;3.45;;;2.20;;
78122;SDS011;67376;44.802;10.332;2023-03-16T01:32:29;5.00;;;2.38;;
78122;SDS011;67376;44.802;10.332;2023-03-16T01:34:54;3.72;;;2.20;;
78122;SDS011;67376;44.802;10.332;2023-03-16T01:37:20;3.08;;;2.10;;
78122;SDS011;67376;44.802;10.332;2023-03-16T01:39:47;3.55;;;2.60;;
78122;SDS011;67376;44.802;10.332;2023-03-16T01:42:13;3.15;;;2.15;;
78122;SDS011;67376;44.802;10.332;2023-03-16T01:44:48;4.28;;;2.50;;
78122;SDS011;67376;44.802;10.332;2023-03-16T01:47:15;4.45;;;2.33;;
78122;SDS011;67376;44.802;10.332;2023-03-16T01:49:42;3.35;;;2.20;;
78122;SDS011;67376;44.802;10.332;2023-03-16T01:52:13;5.05;;;2.40;;
78122;SDS011;67376;44.802;10.332;2023-03-16T01:54:44;4.30;;;2.60;;
78122;SDS011;67376;44.802;10.332;2023-03-16T01:57:18;3.33;;;2.10;;
78122;SDS011;67376;44.802;10.332;2023-03-16T01:59:50;5.65;;;2.53;;
78122;SDS011;67376;44.802;10.332;2023-03-16T02:02:23;5.75;;;3.08;;
78122;SDS011;67376;44.802;10.332;2023-03-16T02:04:57;3.08;;;2.30;;
78122;SDS011;67376;44.802;10.332;2023-03-16T02:07:24;3.17;;;2.17;;
78122;SDS011;67376;44.802;10.332;2023-03-16T02:12:20;3.85;;;2.13;;
78122;SDS011;67376;44.802;10.332;2023-03-16T02:14:49;3.67;;;2.15;;
78122;SDS011;67376;44.802;10.332;2023-03-16T02:17:19;4.45;;;2.50;;
78122;SDS011;67376;44.802;10.332;2023-03-16T02:22:32;4.50;;;2.50;;
78122;SDS011;67376;44.802;10.332;2023-03-16T02:25:00;3.50;;;2.30;;
78122;SDS011;67376;44.802;10.332;2023-03-16T02:27:28;4.95;;;2.42;;
78122;SDS011;67376;44.802;10.332;2023-03-16T02:30:07;4.82;;;2.45;;
78122;SDS011;67376;44.802;10.332;2023-03-16T02:32:37;3.83;;;2.55;;
78122;SDS011;67376;44.802;10.332;2023-03-16T02:35:04;4.30;;;2.25;;
78122;SDS011;67376;44.802;10.332;2023-03-16T02:37:30;4.15;;;2.90;;
78122;SDS011;67376;44.802;10.332;2023-03-16T02:39:58;4.03;;;2.30;;
78122;SDS011;67376;44.802;10.332;2023-03-16T02:42:25;3.08;;;2.28;;
78122;SDS011;67376;44.802;10.332;2023-03-16T02:44:53;4.35;;;2.55;;
78122;SDS011;67376;44.802;10.332;2023-03-16T02:47:29;4.45;;;2.30;;
78122;SDS011;67376;44.802;10.332;2023-03-16T02:49:59;4.03;;;2.42;;
78122;SDS011;67376;44.802;10.332;2023-03-16T02:52:28;3.08;;;1.90;;
78122;SDS011;67376;44.802;10.332;2023-03-16T02:54:54;3.47;;;2.00;;
78122;SDS011;67376;44.802;10.332;2023-03-16T02:57:19;3.88;;;2.17;;
78122;SDS011;67376;44.802;10.332;2023-03-16T02:59:45;3.60;;;2.25;;
78122;SDS011;67376;44.802;10.332;2023-03-16T03:02:10;3.00;;;2.20;;
78122;SDS011;67376;44.802;10.332;2023-03-16T03:04:35;3.42;;;2.28;;
78122;SDS011;67376;44.802;10.332;2023-03-16T03:07:01;2.70;;;2.30;;
78122;SDS011;67376;44.802;10.332;2023-03-16T03:09:29;3.53;;;2.30;;
78122;SDS011;67376;44.802;10.332;2023-03-16T03:11:57;5.22;;;2.50;;
78122;SDS011;67376;44.802;10.332;2023-03-16T03:14:22;4.60;;;2.35;;
78122;SDS011;67376;44.802;10.332;2023-03-16T03:16:49;4.40;;;2.65;;
78122;SDS011;67376;44.802;10.332;2023-03-16T03:19:16;5.32;;;2.35;;
78122;SDS011;67376;44.802;10.332;2023-03-16T03:21:41;3.05;;;2.35;;
78122;SDS011;67376;44.802;10.332;2023-03-16T03:24:07;2.92;;;2.20;;
78122;SDS011;67376;44.802;10.332;2023-03-16T03:26:34;2.85;;;1.92;;
78122;SDS011;67376;44.802;10.332;2023-03-16T03:28:59;2.97;;;1.98;;
78122;SDS011;67376;44.802;10.332;2023-03-16T03:31:25;4.82;;;2.58;;
78122;SDS011;67376;44.802;10.332;2023-03-16T03:33:50;2.40;;;1.83;;
78122;SDS011;67376;44.802;10.332;2023-03-16T03:36:17;5.25;;;2.33;;
78122;SDS011;67376;44.802;10.332;2023-03-16T03:38:43;3.42;;;2.30;;
78122;SDS011;67376;44.802;10.332;2023-03-16T03:41:08;2.63;;;2.00;;
78122;SDS011;67376;44.802;10.332;2023-03-16T03:43:33;4.05;;;2.30;;
78122;SDS011;67376;44.802;10.332;2023-03-16T03:45:59;3.30;;;2.00;;
78122;SDS011;67376;44.802;10.332;2023-03-16T03:48:26;3.17;;;1.83;;
78122;SDS011;67376;44.802;10.332;2023-03-16T03:50:52;4.30;;;2.50;;
78122;SDS011;67376;44.802;10.332;2023-03-16T03:53:18;3.25;;;2.03;;
78122;SDS011;67376;44.802;10.332;2023-03-16T03:55:44;3.17;;;2.00;;
78122;SDS011;67376;44.802;10.332;2023-03-16T03:58:09;4.60;;;2.20;;
78122;SDS011;67376;44.802;10.332;2023-03-16T04:00:36;3.50;;;2.35;;
78122;SDS011;67376;44.802;10.332;2023-03-16T04:03:02;3.03;;;2.08;;
78122;SDS011;67376;44.802;10.332;2023-03-16T04:05:27;4.03;;;2.28;;
78122;SDS011;67376;44.802;10.332;2023-03-16T04:07:53;2.63;;;1.95;;
78122;SDS011;67376;44.802;10.332;2023-03-16T04:10:25;3.53;;;2.25;;
78122;SDS011;67376;44.802;10.332;2023-03-16T04:12:54;2.97;;;2.05;;
78122;SDS011;67376;44.802;10.332;2023-03-16T04:15:20;3.03;;;2.17;;
78122;SDS011;67376;44.802;10.332;2023-03-16T04:17:46;3.35;;;2.08;;
78122;SDS011;67376;44.802;10.332;2023-03-16T04:20:12;2.22;;;1.80;;
78122;SDS011;67376;44.802;10.332;2023-03-16T04:22:42;6.68;;;2.00;;
78122;SDS011;67376;44.802;10.332;2023-03-16T04:25:08;4.22;;;2.35;;
78122;SDS011;67376;44.802;10.332;2023-03-16T04:27:34;3.72;;;2.08;;
78122;SDS011;67376;44.802;10.332;2023-03-16T04:30:04;4.30;;;2.38;;
78122;SDS011;67376;44.802;10.332;2023-03-16T04:32:31;4.20;;;2.33;;
78122;SDS011;67376;44.802;10.332;2023-03-16T04:34:57;2.97;;;2.33;;
78122;SDS011;67376;44.802;10.332;2023-03-16T04:37:23;3.78;;;2.13;;
78122;SDS011;67376;44.802;10.332;2023-03-16T04:39:48;3.20;;;1.80;;
78122;SDS011;67376;44.802;10.332;2023-03-16T04:42:14;3.38;;;2.10;;
78122;SDS011;67376;44.802;10.332;2023-03-16T04:44:39;2.33;;;1.80;;
78122;SDS011;67376;44.802;10.332;2023-03-16T04:47:11;2.97;;;1.95;;
78122;SDS011;67376;44.802;10.332;2023-03-16T04:49:37;3.13;;;1.92;;
78122;SDS011;67376;44.802;10.332;2023-03-16T04:52:03;4.20;;;2.30;;
78122;SDS011;67376;44.802;10.332;2023-03-16T04:54:29;4.18;;;1.80;;
78122;SDS011;67376;44.802;10.332;2023-03-16T04:56:55;2.90;;;1.88;;
78122;SDS011;67376;44.802;10.332;2023-03-16T04:59:21;2.38;;;1.90;;
78122;SDS011;67376;44.802;10.332;2023-03-16T05:01:47;3.67;;;2.22;;
78122;SDS011;67376;44.802;10.332;2023-03-16T05:04:13;3.53;;;1.80;;
78122;SDS011;67376;44.802;10.332;2023-03-16T05:06:39;3.15;;;1.90;;
78122;SDS011;67376;44.802;10.332;2023-03-16T05:09:05;4.20;;;2.17;;
78122;SDS011;67376;44.802;10.332;2023-03-16T05:11:32;3.35;;;2.03;;
78122;SDS011;67376;44.802;10.332;2023-03-16T05:13:57;2.75;;;1.67;;
78122;SDS011;67376;44.802;10.332;2023-03-16T05:16:23;3.03;;;1.88;;
78122;SDS011;67376;44.802;10.332;2023-03-16T05:18:48;2.50;;;2.00;;
78122;SDS011;67376;44.802;10.332;2023-03-16T05:21:14;3.42;;;1.92;;
78122;SDS011;67376;44.802;10.332;2023-03-16T05:23:40;4.18;;;2.28;;
78122;SDS011;67376;44.802;10.332;2023-03-16T05:26:06;3.55;;;2.28;;
78122;SDS011;67376;44.802;10.332;2023-03-16T05:28:31;3.55;;;2.15;;
78122;SDS011;67376;44.802;10.332;2023-03-16T05:30:57;2.63;;;1.80;;
78122;SDS011;67376;44.802;10.332;2023-03-16T05:33:22;2.42;;;1.55;;
78122;SDS011;67376;44.802;10.332;2023-03-16T05:35:49;2.17;;;1.60;;
78122;SDS011;67376;44.802;10.332;2023-03-16T05:38:15;4.22;;;1.80;;
78122;SDS011;67376;44.802;10.332;2023-03-16T05:40:40;2.78;;;1.95;;
78122;SDS011;67376;44.802;10.332;2023-03-16T05:43:06;3.17;;;2.10;;
78122;SDS011;67376;44.802;10.332;2023-03-16T05:45:31;3.13;;;2.00;;
78122;SDS011;67376;44.802;10.332;2023-03-16T05:47:57;3.47;;;2.05;;
78122;SDS011;67376;44.802;10.332;2023-03-16T05:50:23;2.03;;;1.75;;
78122;SDS011;67376;44.802;10.332;2023-03-16T05:52:48;2.80;;;1.88;;
78122;SDS011;67376;44.802;10.332;2023-03-16T05:55:15;3.00;;;1.77;;
78122;SDS011;67376;44.802;10.332;2023-03-16T05:57:41;4.97;;;2.22;;
78122;SDS011;67376;44.802;10.332;2023-03-16T06:00:08;3.13;;;2.08;;
78122;SDS011;67376;44.802;10.332;2023-03-16T06:02:40;6.20;;;2.03;;
78122;SDS011;67376;44.802;10.332;2023-03-16T06:05:11;3.00;;;2.00;;
78122;SDS011;67376;44.802;10.332;2023-03-16T06:07:37;3.00;;;1.92;;
78122;SDS011;67376;44.802;10.332;2023-03-16T06:10:02;4.07;;;1.88;;
78122;SDS011;67376;44.802;10.332;2023-03-16T06:12:28;2.80;;;1.98;;
78122;SDS011;67376;44.802;10.332;2023-03-16T06:14:54;4.22;;;2.00;;
78122;SDS011;67376;44.802;10.332;2023-03-16T06:17:19;2.78;;;1.80;;
78122;SDS011;67376;44.802;10.332;2023-03-16T06:19:45;2.42;;;1.67;;
78122;SDS011;67376;44.802;10.332;2023-03-16T06:22:10;4.10;;;1.75;;
78122;SDS011;67376;44.802;10.332;2023-03-16T06:24:36;3.65;;;1.88;;
78122;SDS011;67376;44.802;10.332;2023-03-16T06:27:01;4.35;;;2.15;;
78122;SDS011;67376;44.802;10.332;2023-03-16T06:29:28;2.67;;;1.80;;
78122;SDS011;67376;44.802;10.332;2023-03-16T06:31:53;2.85;;;1.92;;
78122;SDS011;67376;44.802;10.332;2023-03-16T06:34:19;2.90;;;1.70;;
78122;SDS011;67376;44.802;10.332;2023-03-16T06:36:44;5.63;;;1.90;;
78122;SDS011;67376;44.802;10.332;2023-03-16T06:39:10;2.40;;;1.70;;
78122;SDS011;67376;44.802;10.332;2023-03-16T06:41:35;2.92;;;1.85;;
78122;SDS011;67376;44.802;10.332;2023-03-16T06:44:00;9.75;;;2.08;;
78122;SDS011;67376;44.802;10.332;2023-03-16T06:46:26;4.47;;;2.70;;
78122;SDS011;67376;44.802;10.332;2023-03-16T06:48:52;5.05;;;2.83;;
78122;SDS011;67376;44.802;10.332;2023-03-16T06:51:17;4.50;;;2.88;;
78122;SDS011;67376;44.802;10.332;2023-03-16T06:53:43;7.88;;;3.05;;
78122;SDS011;67376;44.802;10.332;2023-03-16T06:56:08;4.75;;;2.97;;
78122;SDS011;67376;44.802;10.332;2023-03-16T06:58:34;5.35;;;3.40;;
78122;SDS011;67376;44.802;10.332;2023-03-16T07:01:00;4.47;;;2.72;;
78122;SDS011;67376;44.802;10.332;2023-03-16T07:03:27;9.13;;;3.30;;
78122;SDS011;67376;44.802;10.332;2023-03-16T07:05:52;5.22;;;2.35;;
78122;SDS011;67376;44.802;10.332;2023-03-16T07:08:18;4.00;;;3.13;;
78122;SDS011;67376;44.802;10.332;2023-03-16T07:10:43;4.80;;;2.53;;
78122;SDS011;67376;44.802;10.332;2023-03-16T07:13:09;3.92;;;2.28;;
78122;SDS011;67376;44.802;10.332;2023-03-16T07:15:34;5.90;;;2.50;;
78122;SDS011;67376;44.802;10.332;2023-03-16T07:17:59;5.55;;;2.55;;
78122;SDS011;67376;44.802;10.332;2023-03-16T07:20:25;5.30;;;2.30;;
78122;SDS011;67376;44.802;10.332;2023-03-16T07:22:52;4.03;;;2.35;;
78122;SDS011;67376;44.802;10.332;2023-03-16T07:25:17;5.95;;;2.40;;
78122;SDS011;67376;44.802;10.332;2023-03-16T07:27:43;6.10;;;2.30;;
78122;SDS011;67376;44.802;10.332;2023-03-16T07:30:10;8.18;;;2.60;;
78122;SDS011;67376;44.802;10.332;2023-03-16T07:32:38;3.42;;;1.92;;
78122;SDS011;67376;44.802;10.332;2023-03-16T07:35:05;4.78;;;2.33;;
78122;SDS011;67376;44.802;10.332;2023-03-16T07:37:31;5.65;;;2.50;;
78122;SDS011;67376;44.802;10.332;2023-03-16T07:39:59;3.25;;;2.10;;
78122;SDS011;67376;44.802;10.332;2023-03-16T07:42:24;4.93;;;2.20;;
78122;SDS011;67376;44.802;10.332;2023-03-16T07:44:50;4.13;;;2.08;;
78122;SDS011;67376;44.802;10.332;2023-03-16T07:47:16;4.28;;;2.17;;
78122;SDS011;67376;44.802;10.332;2023-03-16T07:49:41;3.92;;;2.10;;
78122;SDS011;67376;44.802;10.332;2023-03-16T07:52:08;3.85;;;2.00;;
78122;SDS011;67376;44.802;10.332;2023-03-16T07:54:34;3.88;;;2.28;;
78122;SDS011;67376;44.802;10.332;2023-03-16T07:57:00;5.40;;;2.38;;
78122;SDS011;67376;44.802;10.332;2023-03-16T07:59:25;5.47;;;2.40;;
78122;SDS011;67376;44.802;10.332;2023-03-16T08:01:51;4.40;;;1.98;;
78122;SDS011;67376;44.802;10.332;2023-03-16T08:04:16;3.30;;;2.03;;
78122;SDS011;67376;44.802;10.332;2023-03-16T08:06:41;3.95;;;2.10;;
78122;SDS011;67376;44.802;10.332;2023-03-16T08:09:07;3.38;;;2.13;;
78122;SDS011;67376;44.802;10.332;2023-03-16T08:11:32;5.70;;;2.30;;
78122;SDS011;67376;44.802;10.332;2023-03-16T08:13:58;3.38;;;2.20;;
78122;SDS011;67376;44.802;10.332;2023-03-16T08:16:24;3.58;;;2.10;;
78122;SDS011;67376;44.802;10.332;2023-03-16T08:18:50;4.57;;;2.28;;
78122;SDS011;67376;44.802;10.332;2023-03-16T08:21:17;3.60;;;2.10;;
78122;SDS011;67376;44.802;10.332;2023-03-16T08:23:43;3.67;;;1.75;;
78122;SDS011;67376;44.802;10.332;2023-03-16T08:26:13;5.30;;;2.15;;
78122;SDS011;67376;44.802;10.332;2023-03-16T08:28:41;4.15;;;1.75;;
78122;SDS011;67376;44.802;10.332;2023-03-16T08:31:07;6.28;;;2.15;;
78122;SDS011;67376;44.802;10.332;2023-03-16T08:33:32;3.45;;;1.98;;
78122;SDS011;67376;44.802;10.332;2023-03-16T08:36:00;4.88;;;2.00;;
78122;SDS011;67376;44.802;10.332;2023-03-16T08:38:26;3.85;;;2.10;;
78122;SDS011;67376;44.802;10.332;2023-03-16T08:40:51;4.35;;;2.05;;
78122;SDS011;67376;44.802;10.332;2023-03-16T08:43:17;3.47;;;2.08;;
78122;SDS011;67376;44.802;10.332;2023-03-16T08:45:46;3.72;;;2.00;;
78122;SDS011;67376;44.802;10.332;2023-03-16T08:48:12;3.17;;;1.80;;
78122;SDS011;67376;44.802;10.332;2023-03-16T08:50:42;3.92;;;1.80;;
78122;SDS011;67376;44.802;10.332;2023-03-16T08:53:08;4.25;;;2.03;;
78122;SDS011;67376;44.802;10.332;2023-03-16T08:55:34;2.58;;;1.88;;
78122;SDS011;67376;44.802;10.332;2023-03-16T08:58:01;4.97;;;1.95;;
78122;SDS011;67376;44.802;10.332;2023-03-16T09:00:26;3.28;;;2.03;;
78122;SDS011;67376;44.802;10.332;2023-03-16T09:02:52;2.75;;;1.90;;
78122;SDS011;67376;44.802;10.332;2023-03-16T09:05:19;3.88;;;1.73;;
78122;SDS011;67376;44.802;10.332;2023-03-16T09:07:45;3.15;;;2.30;;
78122;SDS011;67376;44.802;10.332;2023-03-16T09:10:11;4.07;;;2.00;;
78122;SDS011;67376;44.802;10.332;2023-03-16T09:12:40;2.58;;;1.90;;
78122;SDS011;67376;44.802;10.332;2023-03-16T09:15:06;3.55;;;1.95;;
78122;SDS011;67376;44.802;10.332;2023-03-16T09:17:34;3.10;;;1.80;;
78122;SDS011;67376;44.802;10.332;2023-03-16T09:20:00;3.58;;;2.08;;
78122;SDS011;67376;44.802;10.332;2023-03-16T09:22:26;3.88;;;2.00;;
78122;SDS011;67376;44.802;10.332;2023-03-16T09:24:52;6.53;;;1.75;;
78122;SDS011;67376;44.802;10.332;2023-03-16T09:27:18;2.30;;;1.70;;
78122;SDS011;67376;44.802;10.332;2023-03-16T09:29:45;5.32;;;2.22;;
78122;SDS011;67376;44.802;10.332;2023-03-16T09:32:10;3.05;;;2.55;;
78122;SDS011;67376;44.802;10.332;2023-03-16T09:34:36;5.47;;;1.77;;
78122;SDS011;67376;44.802;10.332;2023-03-16T09:37:02;3.92;;;1.58;;
78122;SDS011;67376;44.802;10.332;2023-03-16T09:39:27;3.03;;;1.83;;
78122;SDS011;67376;44.802;10.332;2023-03-16T09:41:54;2.88;;;2.00;;
78122;SDS011;67376;44.802;10.332;2023-03-16T09:47:07;2.80;;;1.80;;
78122;SDS011;67376;44.802;10.332;2023-03-16T09:49:36;5.68;;;1.90;;
78122;SDS011;67376;44.802;10.332;2023-03-16T09:54:54;3.35;;;1.75;;
78122;SDS011;67376;44.802;10.332;2023-03-16T09:57:25;3.03;;;1.55;;
78122;SDS011;67376;44.802;10.332;2023-03-16T09:59:52;4.50;;;1.95;;
78122;SDS011;67376;44.802;10.332;2023-03-16T10:04:58;7.18;;;1.90;;
78122;SDS011;67376;44.802;10.332;2023-03-16T10:13:43;3.20;;;1.70;;
78122;SDS011;67376;44.802;10.332;2023-03-16T10:16:32;3.05;;;1.80;;
78122;SDS011;67376;44.802;10.332;2023-03-16T10:21:51;2.47;;;1.80;;
78122;SDS011;67376;44.802;10.332;2023-03-16T10:24:26;2.72;;;1.63;;
78122;SDS011;67376;44.802;10.332;2023-03-16T10:27:13;3.03;;;1.90;;
78122;SDS011;67376;44.802;10.332;2023-03-16T10:29:45;3.67;;;1.70;;
78122;SDS011;67376;44.802;10.332;2023-03-16T10:32:13;2.45;;;1.80;;
78122;SDS011;67376;44.802;10.332;2023-03-16T10:34:46;2.28;;;1.40;;
78122;SDS011;67376;44.802;10.332;2023-03-16T10:37:17;2.60;;;1.30;;
78122;SDS011;67376;44.802;10.332;2023-03-16T10:39:44;4.93;;;1.90;;
78122;SDS011;67376;44.802;10.332;2023-03-16T10:44:40;3.10;;;1.60;;
78122;SDS011;67376;44.802;10.332;2023-03-16T10:47:06;2.47;;;1.42;;
78122;SDS011;67376;44.802;10.332;2023-03-16T10:49:41;3.10;;;1.80;;
78122;SDS011;67376;44.802;10.332;2023-03-16T10:54:58;2.63;;;1.73;;
78122;SDS011;67376;44.802;10.332;2023-03-16T10:57:29;3.00;;;1.90;;
78122;SDS011;67376;44.802;10.332;2023-03-16T11:02:55;2.97;;;1.70;;
78122;SDS011;67376;44.802;10.332;2023-03-16T11:05:30;3.58;;;1.70;;
78122;SDS011;67376;44.802;10.332;2023-03-16T11:07:58;2.40;;;1.80;;
78122;SDS011;67376;44.802;10.332;2023-03-16T11:10:46;2.22;;;1.60;;
78122;SDS011;67376;44.802;10.332;2023-03-16T11:13:21;2.20;;;1.23;;
78122;SDS011;67376;44.802;10.332;2023-03-16T11:15:59;2.95;;;1.70;;
78122;SDS011;67376;44.802;10.332;2023-03-16T11:18:31;3.05;;;1.65;;
78122;SDS011;67376;44.802;10.332;2023-03-16T11:21:07;2.03;;;1.30;;
78122;SDS011;67376;44.802;10.332;2023-03-16T11:23:42;3.47;;;1.70;;
78122;SDS011;67376;44.802;10.332;2023-03-16T11:26:35;2.28;;;1.60;;
78122;SDS011;67376;44.802;10.332;2023-03-16T11:29:06;2.10;;;1.33;;
78122;SDS011;67376;44.802;10.332;2023-03-16T11:31:46;4.90;;;2.33;;
78122;SDS011;67376;44.802;10.332;2023-03-16T11:34:16;1.80;;;1.50;;
78122;SDS011;67376;44.802;10.332;2023-03-16T11:36:54;3.88;;;1.60;;
78122;SDS011;67376;44.802;10.332;2023-03-16T11:45:28;2.25;;;1.60;;
78122;SDS011;67376;44.802;10.332;2023-03-16T12:13:03;2.40;;;1.60;;
78122;SDS011;67376;44.802;10.332;2023-03-16T12:18:25;2.63;;;1.67;;
78122;SDS011;67376;44.802;10.332;2023-03-16T12:21:00;1.75;;;1.25;;
78122;SDS011;67376;44.802;10.332;2023-03-16T12:23:32;2.13;;;1.42;;
78122;SDS011;67376;44.802;10.332;2023-03-16T12:26:02;3.15;;;1.60;;
78122;SDS011;67376;44.802;10.332;2023-03-16T12:28:28;3.10;;;1.52;;
78122;SDS011;67376;44.802;10.332;2023-03-16T12:33:44;3.42;;;1.20;;
78122;SDS011;67376;44.802;10.332;2023-03-16T12:36:34;2.15;;;1.67;;
78122;SDS011;67376;44.802;10.332;2023-03-16T12:39:13;2.22;;;1.50;;
78122;SDS011;67376;44.802;10.332;2023-03-16T12:42:08;3.00;;;1.70;;
78122;SDS011;67376;44.802;10.332;2023-03-16T12:44:47;4.03;;;1.35;;
78122;SDS011;67376;44.802;10.332;2023-03-16T12:50:10;1.85;;;1.40;;
78122;SDS011;67376;44.802;10.332;2023-03-16T12:52:43;4.40;;;1.70;;
78122;SDS011;67376;44.802;10.332;2023-03-16T12:55:12;1.58;;;1.48;;
78122;SDS011;67376;44.802;10.332;2023-03-16T12:57:43;1.92;;;1.33;;
78122;SDS011;67376;44.802;10.332;2023-03-16T13:00:12;3.13;;;1.40;;
78122;SDS011;67376;44.802;10.332;2023-03-16T13:02:41;3.05;;;1.30;;
78122;SDS011;67376;44.802;10.332;2023-03-16T13:05:13;2.90;;;1.30;;
78122;SDS011;67376;44.802;10.332;2023-03-16T13:07:45;2.55;;;1.08;;
78122;SDS011;67376;44.802;10.332;2023-03-16T13:10:12;1.38;;;1.20;;
78122;SDS011;67376;44.802;10.332;2023-03-16T13:12:39;1.90;;;1.30;;
78122;SDS011;67376;44.802;10.332;2023-03-16T13:17:44;3.38;;;1.23;;
78122;SDS011;67376;44.802;10.332;2023-03-16T13:22:46;1.85;;;1.20;;
78122;SDS011;67376;44.802;10.332;2023-03-16T13:27:46;1.30;;;1.20;;
78122;SDS011;67376;44.802;10.332;2023-03-16T13:32:41;2.33;;;1.20;;
78122;SDS011;67376;44.802;10.332;2023-03-16T13:35:10;1.80;;;1.20;;
78122;SDS011;67376;44.802;10.332;2023-03-16T13:37:39;1.85;;;1.42;;
78122;SDS011;67376;44.802;10.332;2023-03-16T13:40:23;2.53;;;1.48;;
78122;SDS011;67376;44.802;10.332;2023-03-16T13:42:51;3.03;;;1.30;;
78122;SDS011;67376;44.802;10.332;2023-03-16T13:45:40;2.30;;;1.25;;
78122;SDS011;67376;44.802;10.332;2023-03-16T13:48:05;2.15;;;1.17;;
78122;SDS011;67376;44.802;10.332;2023-03-16T13:50:33;1.42;;;1.13;;
78122;SDS011;67376;44.802;10.332;2023-03-16T13:53:03;3.00;;;1.45;;
78122;SDS011;67376;44.802;10.332;2023-03-16T13:55:34;1.88;;;1.30;;
78122;SDS011;67376;44.802;10.332;2023-03-16T13:58:01;1.95;;;1.17;;
78122;SDS011;67376;44.802;10.332;2023-03-16T14:00:31;2.55;;;1.60;;
78122;SDS011;67376;44.802;10.332;2023-03-16T14:02:59;3.35;;;1.23;;
78122;SDS011;67376;44.802;10.332;2023-03-16T14:05:33;2.13;;;1.25;;
78122;SDS011;67376;44.802;10.332;2023-03-16T14:08:00;1.48;;;1.10;;
78122;SDS011;67376;44.802;10.332;2023-03-16T14:10:32;1.45;;;1.20;;
78122;SDS011;67376;44.802;10.332;2023-03-16T14:15:48;2.42;;;1.20;;
78122;SDS011;67376;44.802;10.332;2023-03-16T14:18:15;1.48;;;1.20;;
78122;SDS011;67376;44.802;10.332;2023-03-16T14:20:46;2.03;;;1.52;;
78122;SDS011;67376;44.802;10.332;2023-03-16T14:25:47;0.98;;;0.93;;
78122;SDS011;67376;44.802;10.332;2023-03-16T14:28:14;2.05;;;1.20;;
78122;SDS011;67376;44.802;10.332;2023-03-16T14:30:51;1.02;;;0.93;;
78122;SDS011;67376;44.802;10.332;2023-03-16T14:33:25;2.03;;;1.33;;
78122;SDS011;67376;44.802;10.332;2023-03-16T14:35:54;1.25;;;0.90;;
78122;SDS011;67376;44.802;10.332;2023-03-16T14:40:53;1.40;;;1.08;;
78122;SDS011;67376;44.802;10.332;2023-03-16T14:48:21;1.92;;;1.02;;
78122;SDS011;67376;44.802;10.332;2023-03-16T14:50:52;1.42;;;1.00;;
78122;SDS011;67376;44.802;10.332;2023-03-16T14:53:20;3.58;;;1.20;;
78122;SDS011;67376;44.802;10.332;2023-03-16T14:55:45;1.65;;;1.13;;
78122;SDS011;67376;44.802;10.332;2023-03-16T14:58:11;1.70;;;1.10;;
78122;SDS011;67376;44.802;10.332;2023-03-16T15:00:37;1.63;;;1.10;;
78122;SDS011;67376;44.802;10.332;2023-03-16T15:05:34;3.20;;;1.20;;
78122;SDS011;67376;44.802;10.332;2023-03-16T15:08:03;1.20;;;1.10;;
78122;SDS011;67376;44.802;10.332;2023-03-16T15:10:31;1.00;;;0.93;;
78122;SDS011;67376;44.802;10.332;2023-03-16T15:13:00;2.03;;;1.10;;
78122;SDS011;67376;44.802;10.332;2023-03-16T15:15:36;1.52;;;1.02;;
78122;SDS011;67376;44.802;10.332;2023-03-16T15:18:02;1.10;;;1.00;;
78122;SDS011;67376;44.802;10.332;2023-03-16T15:20:29;1.73;;;1.20;;
78122;SDS011;67376;44.802;10.332;2023-03-16T15:22:59;1.70;;;1.20;;
78122;SDS011;67376;44.802;10.332;2023-03-16T15:25:35;1.90;;;1.20;;
78122;SDS011;67376;44.802;10.332;2023-03-16T15:30:35;1.75;;;1.20;;
78122;SDS011;67376;44.802;10.332;2023-03-16T15:33:01;1.83;;;1.20;;
78122;SDS011;67376;44.802;10.332;2023-03-16T15:35:26;1.25;;;0.95;;
78122;SDS011;67376;44.802;10.332;2023-03-16T15:37:52;1.48;;;1.25;;
78122;SDS011;67376;44.802;10.332;2023-03-16T15:40:22;1.63;;;1.20;;
78122;SDS011;67376;44.802;10.332;2023-03-16T15:42:50;2.75;;;1.38;;
78122;SDS011;67376;44.802;10.332;2023-03-16T15:45:17;2.50;;;0.95;;
78122;SDS011;67376;44.802;10.332;2023-03-16T15:47:47;1.20;;;1.05;;
78122;SDS011;67376;44.802;10.332;2023-03-16T15:50:18;1.10;;;1.00;;
78122;SDS011;67376;44.802;10.332;2023-03-16T15:52:56;0.93;;;0.80;;
78122;SDS011;67376;44.802;10.332;2023-03-16T15:55:35;2.22;;;1.30;;
78122;SDS011;67376;44.802;10.332;2023-03-16T15:58:03;2.22;;;1.67;;
78122;SDS011;67376;44.802;10.332;2023-03-16T16:00:36;1.83;;;1.13;;
78122;SDS011;67376;44.802;10.332;2023-03-16T16:03:04;2.92;;;1.08;;
78122;SDS011;67376;44.802;10.332;2023-03-16T16:05:31;1.67;;;0.93;;
78122;SDS011;67376;44.802;10.332;2023-03-16T16:07:57;1.10;;;1.00;;
78122;SDS011;67376;44.802;10.332;2023-03-16T16:10:23;1.92;;;1.23;;
78122;SDS011;67376;44.802;10.332;2023-03-16T16:12:50;2.63;;;0.93;;
78122;SDS011;67376;44.802;10.332;2023-03-16T16:17:48;2.22;;;1.25;;
78122;SDS011;67376;44.802;10.332;2023-03-16T16:20:18;1.45;;;1.23;;